sensor_id;sensor_type;location;lat;lon;timestamp;P1;durP1;ratioP1;P2;durP2;ratioP2
12519;SDS011;6325;49.540;8.364;2023-05-10T00:01:31;0.60;;;0.60;;
12519;SDS011;6325;49.540;8.364;2023-05-10T00:03:58;0.50;;;0.50;;
12519;SDS011;6325;49.540;8.364;2023-05-10T00:06:25;1.52;;;0.88;;
12519;SDS011;6325;49.540;8.364;2023-05-10T00:08:52;1.27;;;1.10;;
12519;SDS011;6325;49.540;8.364;2023-05-10T00:11:19;2.00;;;1.85;;
12519;SDS011;6325;49.540;8.364;2023-05-10T00:13:46;2.35;;;1.70;;
12519;SDS011;6325;49.540;8.364;2023-05-10T00:16:14;2.17;;;1.30;;
12519;SDS011;6325;49.540;8.364;2023-05-10T00:18:41;2.72;;;1.88;;
12519;SDS011;6325;49.540;8.364;2023-05-10T00:21:08;1.98;;;1.50;;
12519;SDS011;6325;49.540;8.364;2023-05-10T00:23:35;3.53;;;2.28;;
12519;SDS011;6325;49.540;8.364;2023-05-10T00:26:02;2.60;;;2.05;;
12519;SDS011;6325;49.540;8.364;2023-05-10T00:28:29;7.50;;;4.20;;
12519;SDS011;6325;49.540;8.364;2023-05-10T00:30:55;7.85;;;4.15;;
12519;SDS011;6325;49.540;8.364;2023-05-10T00:33:24;5.32;;;3.25;;
12519;SDS011;6325;49.540;8.364;2023-05-10T00:35:50;10.68;;;6.28;;
12519;SDS011;6325;49.540;8.364;2023-05-10T00:38:17;11.43;;;6.28;;
12519;SDS011;6325;49.540;8.364;2023-05-10T00:40:44;11.60;;;6.35;;
12519;SDS011;6325;49.540;8.364;2023-05-10T00:43:11;12.25;;;6.20;;
12519;SDS011;6325;49.540;8.364;2023-05-10T00:45:37;12.63;;;7.10;;
12519;SDS011;6325;49.540;8.364;2023-05-10T00:48:06;10.77;;;6.00;;
12519;SDS011;6325;49.540;8.364;2023-05-10T00:50:34;9.55;;;5.80;;
12519;SDS011;6325;49.540;8.364;2023-05-10T00:53:01;6.65;;;4.30;;
12519;SDS011;6325;49.540;8.364;2023-05-10T00:55:29;2.78;;;2.20;;
12519;SDS011;6325;49.540;8.364;2023-05-10T00:57:57;1.40;;;1.30;;
12519;SDS011;6325;49.540;8.364;2023-05-10T01:00:24;2.85;;;2.30;;
12519;SDS011;6325;49.540;8.364;2023-05-10T01:02:51;3.97;;;2.90;;
12519;SDS011;6325;49.540;8.364;2023-05-10T01:05:19;4.55;;;2.78;;
12519;SDS011;6325;49.540;8.364;2023-05-10T01:07:47;3.75;;;2.17;;
12519;SDS011;6325;49.540;8.364;2023-05-10T01:10:14;1.42;;;1.33;;
12519;SDS011;6325;49.540;8.364;2023-05-10T01:12:42;1.08;;;0.98;;
12519;SDS011;6325;49.540;8.364;2023-05-10T01:15:11;0.70;;;0.70;;
12519;SDS011;6325;49.540;8.364;2023-05-10T01:17:40;1.10;;;0.75;;
12519;SDS011;6325;49.540;8.364;2023-05-10T01:20:10;0.60;;;0.60;;
12519;SDS011;6325;49.540;8.364;2023-05-10T01:22:46;1.60;;;0.80;;
12519;SDS011;6325;49.540;8.364;2023-05-10T01:25:44;0.85;;;0.60;;
12519;SDS011;6325;49.540;8.364;2023-05-10T01:28:51;0.90;;;0.70;;
12519;SDS011;6325;49.540;8.364;2023-05-10T01:31:49;0.90;;;0.90;;
12519;SDS011;6325;49.540;8.364;2023-05-10T01:34:33;1.05;;;1.05;;
12519;SDS011;6325;49.540;8.364;2023-05-10T01:37:02;0.90;;;0.90;;
12519;SDS011;6325;49.540;8.364;2023-05-10T01:39:37;0.70;;;0.70;;
12519;SDS011;6325;49.540;8.364;2023-05-10T01:42:11;0.70;;;0.70;;
12519;SDS011;6325;49.540;8.364;2023-05-10T01:44:45;0.80;;;0.80;;
12519;SDS011;6325;49.540;8.364;2023-05-10T01:47:23;0.77;;;0.77;;
12519;SDS011;6325;49.540;8.364;2023-05-10T01:49:54;0.60;;;0.60;;
12519;SDS011;6325;49.540;8.364;2023-05-10T01:52:32;0.60;;;0.60;;
12519;SDS011;6325;49.540;8.364;2023-05-10T01:55:04;1.65;;;1.45;;
12519;SDS011;6325;49.540;8.364;2023-05-10T01:57:34;3.03;;;1.97;;
12519;SDS011;6325;49.540;8.364;2023-05-10T02:00:04;1.08;;;1.08;;
12519;SDS011;6325;49.540;8.364;2023-05-10T02:02:36;1.67;;;1.58;;
12519;SDS011;6325;49.540;8.364;2023-05-10T02:05:05;1.33;;;1.23;;
12519;SDS011;6325;49.540;8.364;2023-05-10T02:07:33;1.27;;;1.17;;
12519;SDS011;6325;49.540;8.364;2023-05-10T02:10:02;0.80;;;0.80;;
12519;SDS011;6325;49.540;8.364;2023-05-10T02:12:30;0.90;;;0.90;;
12519;SDS011;6325;49.540;8.364;2023-05-10T02:14:59;5.45;;;3.33;;
12519;SDS011;6325;49.540;8.364;2023-05-10T02:17:28;5.67;;;3.70;;
12519;SDS011;6325;49.540;8.364;2023-05-10T02:19:57;3.72;;;2.80;;
12519;SDS011;6325;49.540;8.364;2023-05-10T02:22:25;4.40;;;3.30;;
12519;SDS011;6325;49.540;8.364;2023-05-10T02:24:53;3.15;;;2.20;;
12519;SDS011;6325;49.540;8.364;2023-05-10T02:27:21;9.48;;;5.50;;
12519;SDS011;6325;49.540;8.364;2023-05-10T02:29:50;11.45;;;6.18;;
12519;SDS011;6325;49.540;8.364;2023-05-10T02:32:18;12.23;;;7.18;;
12519;SDS011;6325;49.540;8.364;2023-05-10T02:34:47;10.40;;;6.15;;
12519;SDS011;6325;49.540;8.364;2023-05-10T02:37:18;16.17;;;8.68;;
12519;SDS011;6325;49.540;8.364;2023-05-10T02:39:46;13.25;;;7.47;;
12519;SDS011;6325;49.540;8.364;2023-05-10T02:42:14;12.02;;;7.22;;
12519;SDS011;6325;49.540;8.364;2023-05-10T02:44:44;12.82;;;7.72;;
12519;SDS011;6325;49.540;8.364;2023-05-10T02:47:13;10.53;;;6.17;;
12519;SDS011;6325;49.540;8.364;2023-05-10T02:49:41;13.90;;;7.32;;
12519;SDS011;6325;49.540;8.364;2023-05-10T02:52:10;16.67;;;9.45;;
12519;SDS011;6325;49.540;8.364;2023-05-10T02:54:43;10.18;;;5.28;;
12519;SDS011;6325;49.540;8.364;2023-05-10T02:57:14;7.28;;;4.47;;
12519;SDS011;6325;49.540;8.364;2023-05-10T02:59:44;6.10;;;4.30;;
12519;SDS011;6325;49.540;8.364;2023-05-10T03:02:11;7.75;;;4.90;;
12519;SDS011;6325;49.540;8.364;2023-05-10T03:04:39;4.07;;;2.95;;
12519;SDS011;6325;49.540;8.364;2023-05-10T03:07:06;2.17;;;1.97;;
12519;SDS011;6325;49.540;8.364;2023-05-10T03:09:33;1.30;;;1.20;;
12519;SDS011;6325;49.540;8.364;2023-05-10T03:12:03;1.10;;;1.00;;
12519;SDS011;6325;49.540;8.364;2023-05-10T03:14:39;1.00;;;1.00;;
12519;SDS011;6325;49.540;8.364;2023-05-10T03:17:15;2.30;;;1.70;;
12519;SDS011;6325;49.540;8.364;2023-05-10T03:19:51;3.42;;;2.47;;
12519;SDS011;6325;49.540;8.364;2023-05-10T03:22:22;1.17;;;1.17;;
12519;SDS011;6325;49.540;8.364;2023-05-10T03:24:51;2.00;;;1.00;;
12519;SDS011;6325;49.540;8.364;2023-05-10T03:27:23;1.25;;;1.20;;
12519;SDS011;6325;49.540;8.364;2023-05-10T03:29:53;1.00;;;1.00;;
12519;SDS011;6325;49.540;8.364;2023-05-10T03:32:21;2.10;;;1.75;;
12519;SDS011;6325;49.540;8.364;2023-05-10T03:34:48;1.20;;;1.20;;
12519;SDS011;6325;49.540;8.364;2023-05-10T03:37:16;1.10;;;1.10;;
12519;SDS011;6325;49.540;8.364;2023-05-10T03:39:42;3.22;;;2.00;;
12519;SDS011;6325;49.540;8.364;2023-05-10T03:42:09;8.07;;;5.13;;
12519;SDS011;6325;49.540;8.364;2023-05-10T03:44:39;6.57;;;4.25;;
12519;SDS011;6325;49.540;8.364;2023-05-10T03:47:06;8.48;;;4.80;;
12519;SDS011;6325;49.540;8.364;2023-05-10T03:49:33;12.15;;;6.53;;
12519;SDS011;6325;49.540;8.364;2023-05-10T03:52:01;10.98;;;5.63;;
12519;SDS011;6325;49.540;8.364;2023-05-10T03:54:28;9.40;;;5.10;;
12519;SDS011;6325;49.540;8.364;2023-05-10T03:56:55;9.68;;;4.90;;
12519;SDS011;6325;49.540;8.364;2023-05-10T03:59:22;8.13;;;5.00;;
12519;SDS011;6325;49.540;8.364;2023-05-10T04:01:50;8.55;;;5.10;;
12519;SDS011;6325;49.540;8.364;2023-05-10T04:04:17;8.50;;;5.55;;
12519;SDS011;6325;49.540;8.364;2023-05-10T04:06:45;4.20;;;2.85;;
12519;SDS011;6325;49.540;8.364;2023-05-10T04:09:12;5.53;;;3.80;;
12519;SDS011;6325;49.540;8.364;2023-05-10T04:11:39;3.38;;;2.67;;
12519;SDS011;6325;49.540;8.364;2023-05-10T04:14:06;1.75;;;1.65;;
12519;SDS011;6325;49.540;8.364;2023-05-10T04:16:33;1.48;;;1.38;;
12519;SDS011;6325;49.540;8.364;2023-05-10T04:19:02;1.17;;;1.17;;
12519;SDS011;6325;49.540;8.364;2023-05-10T04:21:29;1.10;;;1.10;;
12519;SDS011;6325;49.540;8.364;2023-05-10T04:23:56;1.45;;;1.20;;
12519;SDS011;6325;49.540;8.364;2023-05-10T04:26:23;1.30;;;1.20;;
12519;SDS011;6325;49.540;8.364;2023-05-10T04:28:50;1.20;;;1.20;;
12519;SDS011;6325;49.540;8.364;2023-05-10T04:31:17;1.20;;;1.20;;
12519;SDS011;6325;49.540;8.364;2023-05-10T04:33:44;1.40;;;1.30;;
12519;SDS011;6325;49.540;8.364;2023-05-10T04:36:12;1.10;;;1.10;;
12519;SDS011;6325;49.540;8.364;2023-05-10T04:38:38;1.20;;;1.20;;
12519;SDS011;6325;49.540;8.364;2023-05-10T04:41:05;1.50;;;1.42;;
12519;SDS011;6325;49.540;8.364;2023-05-10T04:43:33;1.98;;;1.40;;
12519;SDS011;6325;49.540;8.364;2023-05-10T04:46:01;1.65;;;1.40;;
12519;SDS011;6325;49.540;8.364;2023-05-10T04:48:28;1.50;;;1.40;;
12519;SDS011;6325;49.540;8.364;2023-05-10T04:50:54;2.40;;;1.57;;
12519;SDS011;6325;49.540;8.364;2023-05-10T04:53:23;1.33;;;1.33;;
12519;SDS011;6325;49.540;8.364;2023-05-10T04:55:49;1.40;;;1.40;;
12519;SDS011;6325;49.540;8.364;2023-05-10T04:58:16;1.50;;;1.50;;
12519;SDS011;6325;49.540;8.364;2023-05-10T05:00:43;1.50;;;1.50;;
12519;SDS011;6325;49.540;8.364;2023-05-10T05:03:11;1.70;;;1.60;;
12519;SDS011;6325;49.540;8.364;2023-05-10T05:05:38;1.67;;;1.60;;
12519;SDS011;6325;49.540;8.364;2023-05-10T05:08:04;1.88;;;1.77;;
12519;SDS011;6325;49.540;8.364;2023-05-10T05:10:33;1.90;;;1.80;;
12519;SDS011;6325;49.540;8.364;2023-05-10T05:13:00;1.90;;;1.80;;
12519;SDS011;6325;49.540;8.364;2023-05-10T05:15:26;1.92;;;1.80;;
12519;SDS011;6325;49.540;8.364;2023-05-10T05:17:53;1.90;;;1.80;;
12519;SDS011;6325;49.540;8.364;2023-05-10T05:20:20;1.90;;;1.80;;
12519;SDS011;6325;49.540;8.364;2023-05-10T05:22:47;1.92;;;1.83;;
12519;SDS011;6325;49.540;8.364;2023-05-10T05:25:14;2.00;;;1.90;;
12519;SDS011;6325;49.540;8.364;2023-05-10T05:27:43;2.10;;;2.00;;
12519;SDS011;6325;49.540;8.364;2023-05-10T05:30:10;1.70;;;1.70;;
12519;SDS011;6325;49.540;8.364;2023-05-10T05:32:38;2.10;;;2.00;;
12519;SDS011;6325;49.540;8.364;2023-05-10T05:35:05;2.20;;;2.10;;
12519;SDS011;6325;49.540;8.364;2023-05-10T05:37:32;2.40;;;2.30;;
12519;SDS011;6325;49.540;8.364;2023-05-10T05:40:00;2.33;;;2.22;;
12519;SDS011;6325;49.540;8.364;2023-05-10T05:42:27;2.40;;;2.20;;
12519;SDS011;6325;49.540;8.364;2023-05-10T05:44:56;2.47;;;2.28;;
12519;SDS011;6325;49.540;8.364;2023-05-10T05:47:22;2.70;;;2.60;;
12519;SDS011;6325;49.540;8.364;2023-05-10T05:49:49;2.70;;;2.50;;
12519;SDS011;6325;49.540;8.364;2023-05-10T05:52:16;2.22;;;2.13;;
12519;SDS011;6325;49.540;8.364;2023-05-10T05:54:43;2.30;;;2.20;;
12519;SDS011;6325;49.540;8.364;2023-05-10T05:57:10;2.50;;;2.40;;
12519;SDS011;6325;49.540;8.364;2023-05-10T05:59:37;2.22;;;2.13;;
12519;SDS011;6325;49.540;8.364;2023-05-10T06:02:08;2.20;;;2.10;;
12519;SDS011;6325;49.540;8.364;2023-05-10T06:04:35;2.38;;;2.28;;
12519;SDS011;6325;49.540;8.364;2023-05-10T06:07:02;2.55;;;2.45;;
12519;SDS011;6325;49.540;8.364;2023-05-10T06:09:29;2.20;;;2.10;;
12519;SDS011;6325;49.540;8.364;2023-05-10T06:11:56;2.30;;;2.20;;
12519;SDS011;6325;49.540;8.364;2023-05-10T06:14:23;2.13;;;2.03;;
12519;SDS011;6325;49.540;8.364;2023-05-10T06:16:50;2.17;;;2.00;;
12519;SDS011;6325;49.540;8.364;2023-05-10T06:19:18;2.00;;;1.90;;
12519;SDS011;6325;49.540;8.364;2023-05-10T06:21:45;2.50;;;2.30;;
12519;SDS011;6325;49.540;8.364;2023-05-10T06:24:12;2.10;;;2.00;;
12519;SDS011;6325;49.540;8.364;2023-05-10T06:26:39;2.00;;;1.90;;
12519;SDS011;6325;49.540;8.364;2023-05-10T06:29:05;2.30;;;2.10;;
12519;SDS011;6325;49.540;8.364;2023-05-10T06:31:32;2.00;;;1.90;;
12519;SDS011;6325;49.540;8.364;2023-05-10T06:33:59;1.70;;;1.70;;
12519;SDS011;6325;49.540;8.364;2023-05-10T06:36:27;2.10;;;2.00;;
12519;SDS011;6325;49.540;8.364;2023-05-10T06:38:54;1.70;;;1.70;;
12519;SDS011;6325;49.540;8.364;2023-05-10T06:41:21;1.80;;;1.70;;
12519;SDS011;6325;49.540;8.364;2023-05-10T06:43:49;2.00;;;1.80;;
12519;SDS011;6325;49.540;8.364;2023-05-10T06:46:16;1.58;;;1.48;;
12519;SDS011;6325;49.540;8.364;2023-05-10T06:48:42;1.40;;;1.30;;
12519;SDS011;6325;49.540;8.364;2023-05-10T06:51:09;1.20;;;1.20;;
12519;SDS011;6325;49.540;8.364;2023-05-10T06:53:37;1.38;;;1.10;;
12519;SDS011;6325;49.540;8.364;2023-05-10T06:56:04;0.98;;;0.98;;
12519;SDS011;6325;49.540;8.364;2023-05-10T06:58:31;1.08;;;1.08;;
12519;SDS011;6325;49.540;8.364;2023-05-10T07:01:01;1.42;;;1.02;;
12519;SDS011;6325;49.540;8.364;2023-05-10T07:03:29;0.80;;;0.80;;
12519;SDS011;6325;49.540;8.364;2023-05-10T07:05:59;0.95;;;0.95;;
12519;SDS011;6325;49.540;8.364;2023-05-10T07:08:28;0.93;;;0.80;;
12519;SDS011;6325;49.540;8.364;2023-05-10T07:11:00;1.00;;;0.85;;
12519;SDS011;6325;49.540;8.364;2023-05-10T07:13:28;0.80;;;0.80;;
12519;SDS011;6325;49.540;8.364;2023-05-10T07:15:57;0.80;;;0.77;;
12519;SDS011;6325;49.540;8.364;2023-05-10T07:18:25;1.02;;;0.70;;
12519;SDS011;6325;49.540;8.364;2023-05-10T07:20:52;1.10;;;0.88;;
12519;SDS011;6325;49.540;8.364;2023-05-10T07:23:19;0.80;;;0.80;;
12519;SDS011;6325;49.540;8.364;2023-05-10T07:25:46;1.60;;;0.90;;
12519;SDS011;6325;49.540;8.364;2023-05-10T07:28:14;0.90;;;0.90;;
12519;SDS011;6325;49.540;8.364;2023-05-10T07:30:42;1.25;;;1.15;;
12519;SDS011;6325;49.540;8.364;2023-05-10T07:33:09;2.22;;;1.75;;
12519;SDS011;6325;49.540;8.364;2023-05-10T07:35:37;1.65;;;1.55;;
12519;SDS011;6325;49.540;8.364;2023-05-10T07:38:04;3.03;;;2.17;;
12519;SDS011;6325;49.540;8.364;2023-05-10T07:40:31;2.47;;;1.80;;
12519;SDS011;6325;49.540;8.364;2023-05-10T07:42:58;1.70;;;1.40;;
12519;SDS011;6325;49.540;8.364;2023-05-10T07:45:28;2.47;;;1.00;;
12519;SDS011;6325;49.540;8.364;2023-05-10T07:47:55;2.25;;;1.45;;
12519;SDS011;6325;49.540;8.364;2023-05-10T07:50:21;2.58;;;1.90;;
12519;SDS011;6325;49.540;8.364;2023-05-10T07:52:48;1.48;;;1.25;;
12519;SDS011;6325;49.540;8.364;2023-05-10T07:55:15;3.75;;;2.70;;
12519;SDS011;6325;49.540;8.364;2023-05-10T07:57:44;4.03;;;2.13;;
12519;SDS011;6325;49.540;8.364;2023-05-10T08:00:12;5.63;;;3.23;;
12519;SDS011;6325;49.540;8.364;2023-05-10T08:02:44;4.57;;;3.10;;
12519;SDS011;6325;49.540;8.364;2023-05-10T08:05:10;7.53;;;4.78;;
12519;SDS011;6325;49.540;8.364;2023-05-10T08:07:37;10.38;;;5.95;;
12519;SDS011;6325;49.540;8.364;2023-05-10T08:10:05;8.23;;;4.40;;
12519;SDS011;6325;49.540;8.364;2023-05-10T08:12:32;3.17;;;2.30;;
12519;SDS011;6325;49.540;8.364;2023-05-10T08:14:59;7.85;;;4.53;;
12519;SDS011;6325;49.540;8.364;2023-05-10T08:17:26;13.27;;;6.60;;
12519;SDS011;6325;49.540;8.364;2023-05-10T08:19:55;8.60;;;4.00;;
12519;SDS011;6325;49.540;8.364;2023-05-10T08:22:21;7.45;;;3.22;;
12519;SDS011;6325;49.540;8.364;2023-05-10T08:24:48;12.77;;;6.72;;
12519;SDS011;6325;49.540;8.364;2023-05-10T08:27:15;8.98;;;4.88;;
12519;SDS011;6325;49.540;8.364;2023-05-10T08:29:42;14.90;;;7.45;;
12519;SDS011;6325;49.540;8.364;2023-05-10T08:32:08;7.00;;;4.57;;
12519;SDS011;6325;49.540;8.364;2023-05-10T08:34:35;5.60;;;3.80;;
12519;SDS011;6325;49.540;8.364;2023-05-10T08:37:03;4.53;;;2.85;;
12519;SDS011;6325;49.540;8.364;2023-05-10T08:39:33;8.43;;;4.67;;
12519;SDS011;6325;49.540;8.364;2023-05-10T08:42:01;8.40;;;4.82;;
12519;SDS011;6325;49.540;8.364;2023-05-10T08:44:30;5.13;;;1.83;;
12519;SDS011;6325;49.540;8.364;2023-05-10T08:46:58;1.63;;;1.35;;
12519;SDS011;6325;49.540;8.364;2023-05-10T08:49:31;1.10;;;1.00;;
12519;SDS011;6325;49.540;8.364;2023-05-10T08:51:59;3.63;;;2.28;;
12519;SDS011;6325;49.540;8.364;2023-05-10T08:54:29;5.57;;;2.90;;
12519;SDS011;6325;49.540;8.364;2023-05-10T08:56:58;7.55;;;4.10;;
12519;SDS011;6325;49.540;8.364;2023-05-10T08:59:25;11.10;;;5.95;;
12519;SDS011;6325;49.540;8.364;2023-05-10T09:01:51;6.25;;;3.83;;
12519;SDS011;6325;49.540;8.364;2023-05-10T09:04:20;16.98;;;8.23;;
12519;SDS011;6325;49.540;8.364;2023-05-10T09:06:47;8.10;;;4.75;;
12519;SDS011;6325;49.540;8.364;2023-05-10T09:09:14;7.32;;;4.43;;
12519;SDS011;6325;49.540;8.364;2023-05-10T09:11:43;4.95;;;3.20;;
12519;SDS011;6325;49.540;8.364;2023-05-10T09:14:10;8.20;;;4.93;;
12519;SDS011;6325;49.540;8.364;2023-05-10T09:16:39;11.50;;;6.00;;
12519;SDS011;6325;49.540;8.364;2023-05-10T09:19:07;9.70;;;5.25;;
12519;SDS011;6325;49.540;8.364;2023-05-10T09:21:35;7.22;;;3.88;;
12519;SDS011;6325;49.540;8.364;2023-05-10T09:24:03;9.52;;;5.57;;
12519;SDS011;6325;49.540;8.364;2023-05-10T09:26:31;9.35;;;4.72;;
12519;SDS011;6325;49.540;8.364;2023-05-10T09:28:59;2.10;;;1.83;;
12519;SDS011;6325;49.540;8.364;2023-05-10T09:34:10;1.77;;;1.42;;
12519;SDS011;6325;49.540;8.364;2023-05-10T09:36:36;6.88;;;4.13;;
12519;SDS011;6325;49.540;8.364;2023-05-10T09:39:19;2.03;;;1.77;;
12519;SDS011;6325;49.540;8.364;2023-05-10T09:41:46;2.60;;;1.90;;
12519;SDS011;6325;49.540;8.364;2023-05-10T09:44:17;3.60;;;2.22;;
12519;SDS011;6325;49.540;8.364;2023-05-10T09:46:48;7.72;;;2.92;;
12519;SDS011;6325;49.540;8.364;2023-05-10T09:49:17;3.50;;;2.13;;
12519;SDS011;6325;49.540;8.364;2023-05-10T09:51:44;3.70;;;2.35;;
12519;SDS011;6325;49.540;8.364;2023-05-10T09:54:11;15.15;;;7.20;;
12519;SDS011;6325;49.540;8.364;2023-05-10T09:56:39;10.38;;;4.70;;
12519;SDS011;6325;49.540;8.364;2023-05-10T09:59:09;12.32;;;6.93;;
12519;SDS011;6325;49.540;8.364;2023-05-10T10:01:38;10.52;;;5.40;;
12519;SDS011;6325;49.540;8.364;2023-05-10T10:04:05;9.48;;;4.80;;
12519;SDS011;6325;49.540;8.364;2023-05-10T10:06:38;5.65;;;3.05;;
12519;SDS011;6325;49.540;8.364;2023-05-10T10:09:05;2.78;;;1.75;;
12519;SDS011;6325;49.540;8.364;2023-05-10T10:11:33;3.58;;;2.30;;
12519;SDS011;6325;49.540;8.364;2023-05-10T10:14:01;8.02;;;4.40;;
12519;SDS011;6325;49.540;8.364;2023-05-10T10:16:28;8.85;;;5.22;;
12519;SDS011;6325;49.540;8.364;2023-05-10T10:18:57;10.67;;;5.60;;
12519;SDS011;6325;49.540;8.364;2023-05-10T10:21:24;7.30;;;4.10;;
12519;SDS011;6325;49.540;8.364;2023-05-10T10:23:52;5.53;;;3.30;;
12519;SDS011;6325;49.540;8.364;2023-05-10T10:26:19;7.70;;;4.22;;
12519;SDS011;6325;49.540;8.364;2023-05-10T10:28:49;8.48;;;4.72;;
12519;SDS011;6325;49.540;8.364;2023-05-10T10:31:24;10.43;;;5.30;;
12519;SDS011;6325;49.540;8.364;2023-05-10T10:34:03;4.38;;;2.95;;
12519;SDS011;6325;49.540;8.364;2023-05-10T10:36:33;5.63;;;3.10;;
12519;SDS011;6325;49.540;8.364;2023-05-10T10:39:08;2.03;;;1.83;;
12519;SDS011;6325;49.540;8.364;2023-05-10T10:41:37;4.20;;;2.50;;
12519;SDS011;6325;49.540;8.364;2023-05-10T10:47:03;4.38;;;2.85;;
12519;SDS011;6325;49.540;8.364;2023-05-10T10:49:38;1.23;;;1.15;;
12519;SDS011;6325;49.540;8.364;2023-05-10T10:52:12;3.25;;;2.05;;
12519;SDS011;6325;49.540;8.364;2023-05-10T10:54:40;6.82;;;3.70;;
12519;SDS011;6325;49.540;8.364;2023-05-10T10:57:11;8.93;;;4.82;;
12519;SDS011;6325;49.540;8.364;2023-05-10T10:59:42;6.70;;;4.03;;
12519;SDS011;6325;49.540;8.364;2023-05-10T11:02:10;6.72;;;3.95;;
12519;SDS011;6325;49.540;8.364;2023-05-10T11:08:00;8.43;;;5.20;;
12519;SDS011;6325;49.540;8.364;2023-05-10T11:10:33;4.93;;;3.00;;
12519;SDS011;6325;49.540;8.364;2023-05-10T11:13:00;7.03;;;4.03;;
12519;SDS011;6325;49.540;8.364;2023-05-10T11:15:30;5.20;;;2.53;;
12519;SDS011;6325;49.540;8.364;2023-05-10T11:17:57;3.00;;;1.98;;
12519;SDS011;6325;49.540;8.364;2023-05-10T11:20:28;3.90;;;2.65;;
12519;SDS011;6325;49.540;8.364;2023-05-10T11:23:10;11.40;;;5.82;;
12519;SDS011;6325;49.540;8.364;2023-05-10T11:25:43;6.57;;;3.55;;
12519;SDS011;6325;49.540;8.364;2023-05-10T11:28:11;4.85;;;3.25;;
12519;SDS011;6325;49.540;8.364;2023-05-10T11:30:38;6.95;;;3.70;;
12519;SDS011;6325;49.540;8.364;2023-05-10T11:33:07;3.45;;;2.30;;
12519;SDS011;6325;49.540;8.364;2023-05-10T11:35:38;3.10;;;2.42;;
12519;SDS011;6325;49.540;8.364;2023-05-10T11:38:06;8.48;;;4.80;;
12519;SDS011;6325;49.540;8.364;2023-05-10T11:40:33;6.55;;;4.00;;
12519;SDS011;6325;49.540;8.364;2023-05-10T11:43:01;3.45;;;2.20;;
12519;SDS011;6325;49.540;8.364;2023-05-10T11:45:29;5.15;;;2.80;;
12519;SDS011;6325;49.540;8.364;2023-05-10T11:47:58;3.17;;;2.17;;
12519;SDS011;6325;49.540;8.364;2023-05-10T11:50:25;2.90;;;2.17;;
12519;SDS011;6325;49.540;8.364;2023-05-10T11:52:54;1.92;;;1.42;;
12519;SDS011;6325;49.540;8.364;2023-05-10T11:55:23;4.10;;;2.47;;
12519;SDS011;6325;49.540;8.364;2023-05-10T11:57:53;9.35;;;5.40;;
12519;SDS011;6325;49.540;8.364;2023-05-10T12:00:20;4.80;;;2.90;;
12519;SDS011;6325;49.540;8.364;2023-05-10T12:02:47;2.63;;;1.98;;
12519;SDS011;6325;49.540;8.364;2023-05-10T12:05:15;4.78;;;1.75;;
12519;SDS011;6325;49.540;8.364;2023-05-10T12:07:42;6.45;;;3.72;;
12519;SDS011;6325;49.540;8.364;2023-05-10T12:10:11;1.90;;;1.00;;
12519;SDS011;6325;49.540;8.364;2023-05-10T12:12:40;2.23;;;1.40;;
12519;SDS011;6325;49.540;8.364;2023-05-10T12:15:10;4.80;;;2.70;;
12519;SDS011;6325;49.540;8.364;2023-05-10T12:17:38;2.00;;;1.17;;
12519;SDS011;6325;49.540;8.364;2023-05-10T12:20:15;1.67;;;0.80;;
12519;SDS011;6325;49.540;8.364;2023-05-10T12:22:45;2.85;;;2.35;;
12519;SDS011;6325;49.540;8.364;2023-05-10T12:25:14;1.52;;;0.80;;
12519;SDS011;6325;49.540;8.364;2023-05-10T12:27:47;1.00;;;0.60;;
12519;SDS011;6325;49.540;8.364;2023-05-10T12:30:18;2.10;;;1.40;;
12519;SDS011;6325;49.540;8.364;2023-05-10T12:32:47;3.00;;;1.30;;
12519;SDS011;6325;49.540;8.364;2023-05-10T12:35:13;1.63;;;0.87;;
12519;SDS011;6325;49.540;8.364;2023-05-10T12:37:41;1.83;;;1.00;;
12519;SDS011;6325;49.540;8.364;2023-05-10T12:40:09;2.55;;;1.00;;
12519;SDS011;6325;49.540;8.364;2023-05-10T12:42:38;1.73;;;1.17;;
12519;SDS011;6325;49.540;8.364;2023-05-10T12:45:06;1.40;;;0.80;;
12519;SDS011;6325;49.540;8.364;2023-05-10T12:47:34;5.80;;;3.00;;
12519;SDS011;6325;49.540;8.364;2023-05-10T12:50:01;0.70;;;0.70;;
12519;SDS011;6325;49.540;8.364;2023-05-10T12:52:28;1.60;;;0.82;;
12519;SDS011;6325;49.540;8.364;2023-05-10T12:54:57;1.40;;;0.90;;
12519;SDS011;6325;49.540;8.364;2023-05-10T12:57:24;0.95;;;0.70;;
12519;SDS011;6325;49.540;8.364;2023-05-10T12:59:52;1.02;;;0.60;;
12519;SDS011;6325;49.540;8.364;2023-05-10T13:02:18;0.80;;;0.80;;
12519;SDS011;6325;49.540;8.364;2023-05-10T13:04:46;0.77;;;0.70;;
12519;SDS011;6325;49.540;8.364;2023-05-10T13:07:13;0.70;;;0.70;;
12519;SDS011;6325;49.540;8.364;2023-05-10T13:09:40;0.68;;;0.68;;
12519;SDS011;6325;49.540;8.364;2023-05-10T13:12:07;0.70;;;0.68;;
12519;SDS011;6325;49.540;8.364;2023-05-10T13:14:34;0.70;;;0.70;;
12519;SDS011;6325;49.540;8.364;2023-05-10T13:17:02;0.73;;;0.60;;
12519;SDS011;6325;49.540;8.364;2023-05-10T13:19:29;1.50;;;0.52;;
12519;SDS011;6325;49.540;8.364;2023-05-10T13:21:56;0.93;;;0.65;;
12519;SDS011;6325;49.540;8.364;2023-05-10T13:24:23;0.98;;;0.98;;
12519;SDS011;6325;49.540;8.364;2023-05-10T13:26:49;1.42;;;0.80;;
12519;SDS011;6325;49.540;8.364;2023-05-10T13:29:16;5.70;;;2.83;;
12519;SDS011;6325;49.540;8.364;2023-05-10T13:31:44;2.38;;;1.88;;
12519;SDS011;6325;49.540;8.364;2023-05-10T13:34:12;4.72;;;2.80;;
12519;SDS011;6325;49.540;8.364;2023-05-10T13:36:39;8.35;;;4.25;;
12519;SDS011;6325;49.540;8.364;2023-05-10T13:39:06;2.38;;;1.50;;
12519;SDS011;6325;49.540;8.364;2023-05-10T13:41:33;1.60;;;0.90;;
12519;SDS011;6325;49.540;8.364;2023-05-10T13:44:01;3.80;;;1.92;;
12519;SDS011;6325;49.540;8.364;2023-05-10T13:46:28;7.60;;;3.97;;
12519;SDS011;6325;49.540;8.364;2023-05-10T13:48:55;5.20;;;2.90;;
12519;SDS011;6325;49.540;8.364;2023-05-10T13:51:24;1.73;;;1.00;;
12519;SDS011;6325;49.540;8.364;2023-05-10T13:53:50;3.42;;;1.77;;
12519;SDS011;6325;49.540;8.364;2023-05-10T13:56:17;5.50;;;3.38;;
12519;SDS011;6325;49.540;8.364;2023-05-10T13:58:44;2.17;;;1.38;;
12519;SDS011;6325;49.540;8.364;2023-05-10T14:01:11;5.78;;;2.90;;
12519;SDS011;6325;49.540;8.364;2023-05-10T14:03:38;9.13;;;5.07;;
12519;SDS011;6325;49.540;8.364;2023-05-10T14:06:05;7.30;;;4.10;;
12519;SDS011;6325;49.540;8.364;2023-05-10T14:08:33;2.03;;;1.48;;
12519;SDS011;6325;49.540;8.364;2023-05-10T14:11:00;2.13;;;1.70;;
12519;SDS011;6325;49.540;8.364;2023-05-10T14:13:27;7.28;;;3.63;;
12519;SDS011;6325;49.540;8.364;2023-05-10T14:15:54;1.25;;;0.80;;
12519;SDS011;6325;49.540;8.364;2023-05-10T14:18:21;1.50;;;0.50;;
12519;SDS011;6325;49.540;8.364;2023-05-10T14:20:48;0.83;;;0.50;;
12519;SDS011;6325;49.540;8.364;2023-05-10T14:23:15;0.77;;;0.40;;
12519;SDS011;6325;49.540;8.364;2023-05-10T14:25:43;0.55;;;0.55;;
12519;SDS011;6325;49.540;8.364;2023-05-10T14:28:10;3.17;;;2.30;;
12519;SDS011;6325;49.540;8.364;2023-05-10T14:30:37;4.80;;;2.90;;
12519;SDS011;6325;49.540;8.364;2023-05-10T14:33:03;2.58;;;1.75;;
12519;SDS011;6325;49.540;8.364;2023-05-10T14:35:30;6.20;;;3.73;;
12519;SDS011;6325;49.540;8.364;2023-05-10T14:37:58;2.05;;;1.40;;
12519;SDS011;6325;49.540;8.364;2023-05-10T14:40:24;3.80;;;1.95;;
12519;SDS011;6325;49.540;8.364;2023-05-10T14:42:53;1.00;;;0.80;;
12519;SDS011;6325;49.540;8.364;2023-05-10T14:45:21;0.50;;;0.50;;
12519;SDS011;6325;49.540;8.364;2023-05-10T14:47:48;4.93;;;2.85;;
12519;SDS011;6325;49.540;8.364;2023-05-10T14:50:15;2.83;;;1.50;;
12519;SDS011;6325;49.540;8.364;2023-05-10T14:52:43;5.30;;;3.08;;
12519;SDS011;6325;49.540;8.364;2023-05-10T14:55:10;5.88;;;3.63;;
12519;SDS011;6325;49.540;8.364;2023-05-10T14:57:36;4.35;;;2.55;;
12519;SDS011;6325;49.540;8.364;2023-05-10T15:00:05;2.45;;;1.60;;
12519;SDS011;6325;49.540;8.364;2023-05-10T15:02:33;5.10;;;3.03;;
12519;SDS011;6325;49.540;8.364;2023-05-10T15:05:01;8.80;;;4.40;;
12519;SDS011;6325;49.540;8.364;2023-05-10T15:07:27;1.10;;;1.00;;
12519;SDS011;6325;49.540;8.364;2023-05-10T15:09:56;1.40;;;1.30;;
12519;SDS011;6325;49.540;8.364;2023-05-10T15:12:23;1.90;;;1.17;;
12519;SDS011;6325;49.540;8.364;2023-05-10T15:14:50;2.83;;;2.17;;
12519;SDS011;6325;49.540;8.364;2023-05-10T15:17:18;2.47;;;1.80;;